x

Monterey - 27nm Wnw Of Monterey, Ca (46042) Wave Buoy

9:50pm - Thu 28th Aug 2014 All times are PDT. -7 hours from GMT.

  • Sig Wave height 6.9ft
  • Swell Direction
  • Peak Period 12s
  • Average Period 8s
  • Wind
    13mph, 18mph gusts
  • Sea Temp 64°f
  • Air Temp 60°f
  • Sea Pressure 1016mb
  • Monterey - 27nm Wnw Of Monterey, Ca
  • Monterey - 27nm Wnw Of Monterey, Ca

More Historic Weather Station data

Upgrade to MSW Pro to gain access to the past 30 days of data for over 8000 Wavebouys and Weather Stations around the globe.

Join Pro

Comparision Forecast

View Surf forecast
   
Thu 08/28 9:50pm 7ft 12s 8s 13 18 mph 1016mb 64f 60f
8:50pm 7ft 13s 8s 13 16 mph 1015.9mb 64f 61f
7:50pm 7.5ft 13s 9s 13 16 mph 1015.5mb 64f 61f
6:50pm 7ft 12s 8s 13 18 mph 1015.3mb 64f 61f
5:50pm 6.5ft 13s 8s 16 20 mph 1015.8mb 64f 61f
4:50pm 7ft 13s 9s 13 18 mph 1016.2mb 64f 61f
3:50pm 6.5ft 13s 9s 16 20 mph 1016.4mb 64f 61f
2:50pm 6.5ft 13s 9s 13 18 mph 1016.9mb 64f 61f
1:50pm 7ft 13s 10s 13 18 mph 1017.2mb 64f 61f
12:50pm 7ft 13s 10s 13 18 mph 1017.8mb 64f 61f
11:50am 6ft 14s 10s 11 16 mph 1018.4mb 64f 61f
10:50am 6ft 14s 10s 9 13 mph 1018.8mb 64f 60f
9:50am 6.5ft 13s 10s 9 13 mph 1018.9mb 64f 60f
8:50am 8ft 14s 10s 11 16 mph 1018.6mb 64f 60f
7:50am 5.5ft 14s 9s 11 18 mph 1018.7mb 64f 60f
6:50am 7ft 13s 10s 11 13 mph 1018.6mb 64f 60f
5:50am 6.5ft 14s 10s 7 11 mph 1018.3mb 64f 60f
4:50am 7.5ft 14s 11s 4 7 mph 1018.4mb 64f 60f
3:50am 6ft 14s 10s 7 9 mph 1018.4mb 64f 60f
2:50am 7ft 14s 10s 9 11 mph 1018.6mb 64f 60f
1:50am 9ft 15s 11s 7 11 mph 1018.7mb 64f 60f
12:50am 6ft 14s 9s 4 9 mph 1018.9mb 64f 60f
Wed 08/27 11:50pm 7ft 13s 10s 11 16 mph 1018.7mb 64f 60f
10:50pm 9ft 14s 11s 11 16 mph 1018.7mb 64f 61f
9:50pm 10ft 14s 11s 11 16 mph 1018.8mb 64f 61f
8:50pm 8.5ft 15s 10s 11 16 mph 1018mb 65f 61f
7:50pm 9ft 14s 10s 13 18 mph 1017.5mb 65f 61f
6:50pm 10ft 15s 11s 13 18 mph 1017.4mb 65f 61f
5:50pm 12ft 15s 12s 16 20 mph 1017.6mb 65f 62f
4:50pm 9ft 15s 11s 13 18 mph 1017.7mb 65f 62f
3:50pm 9.5ft 15s 11s 13 18 mph 1017.7mb 65f 62f
2:50pm 10.5ft 15s 12s 13 18 mph 1017.9mb 65f 62f
1:50pm 7.5ft 15s 11s 13 18 mph 1018.1mb 65f 63f
12:50pm 10ft 15s 13s 13 16 mph 1018.3mb 65f 63f
11:50am 7ft 16s 11s 11 16 mph 1018.5mb 65f 63f
10:50am 9ft 15s 12s 9 11 mph 1018.8mb 65f 63f
9:50am 8ft 16s 12s 9 11 mph 1018.6mb 65f 63f
8:50am 8ft 16s 11s 9 11 mph 1018.3mb 65f 63f
7:50am 8ft 16s 11s 9 11 mph 1018mb 64f 63f
6:50am 7ft 16s 10s 9 11 mph 1017.8mb 65f 63f
5:50am 8ft 16s 11s 9
mph
1017.1mb 65f 63f
4:50am 7ft 15s 10s 7 11 mph 1016.9mb 65f 63f
3:50am 7.5ft 15s 10s 7 9 mph 1016.9mb 65f 63f
2:50am 7ft 16s 11s 7 9 mph 1016.7mb 65f 63f
1:50am 6ft 16s 10s 7 9 mph 1016.6mb 65f 63f
12:50am 6ft 13s 9s 7 9 mph 1016.6mb 65f 63f
Tue 08/26 11:50pm 6ft 14s 9s 9
mph
1016.5mb 65f 63f
10:50pm 5ft 17s 9s 7 9 mph 1016.6mb 65f 64f
9:50pm 6ft 13s 9s 9 11 mph 1016.3mb 65f 64f
8:50pm 5ft 14s 9s 9 11 mph 1016mb 65f 64f
7:50pm 5ft 8s 8s 9 11 mph 1015.6mb 66f 64f
6:50pm 5ft 9s 8s 11 13 mph 1015.2mb 66f 64f
5:50pm 6ft 8s 9s 9 11 mph 1015.4mb 66f 64f
4:50pm 5.5ft 13s 9s 9 11 mph 1015.5mb 66f 64f
3:50pm 5.5ft 9s 8s 9 11 mph 1015.7mb 66f 63f
2:50pm 6ft 9s 9s 9 11 mph 1016mb 66f 63f
1:50pm 6ft 9s 8s 7 9 mph 1016.6mb 66f 63f
12:50pm 5.5ft 8s 8s 7
mph
1017mb 65f 63f
11:50am 5.5ft 14s 8s 7 9 mph 1017.2mb 65f 63f
10:50am 5.5ft 12s 8s 2 4 mph 1017.3mb 64f 63f
9:50am 5.5ft 13s 8s  -  2 mph 1017.2mb 64f 63f
8:50am 5ft 9s 8s  -  4 mph 1016.8mb 64f 62f
7:50am 5ft 9s 8s 2 4 mph 1016.5mb 64f 62f
6:50am 5.5ft 13s 8s 2 4 mph 1015.9mb 64f 62f
5:50am 5ft 14s 8s 2 4 mph 1015.5mb 64f 62f
4:50am 5ft 8s 8s 4 7 mph 1015mb 64f 62f
3:50am 5ft 13s 8s 2 4 mph 1015mb 64f 62f
2:50am 4.5ft 8s 7s 2
mph
1015.1mb 65f 62f
1:50am 5ft 8s 8s 2 4 mph 1015.1mb 65f 62f
12:50am 5ft 8s 8s 2
mph
1015.1mb 64f 62f
Mon 08/25 11:50pm 5ft 9s 8s  -  2 mph 1015.1mb 65f 61f
10:50pm 5ft 13s 8s 2 4 mph 1014.8mb 65f 61f
9:50pm 5ft 14s 8s 4 7 mph 1014.6mb 65f 62f
8:50pm 5ft 8s 8s 4 7 mph 1014.1mb 65f 62f
7:50pm 5ft 8s 8s 7 9 mph 1013.4mb 66f 62f
6:50pm 5ft 9s 8s 7 9 mph 1013.2mb 66f 63f
5:50pm 5ft 8s 8s 7 9 mph 1013.2mb 66f 63f
4:50pm 5.5ft 8s 8s 7 9 mph 1012.8mb 66f 63f
3:50pm 5ft 9s 8s 9 11 mph 1012.6mb 66f 62f
2:50pm 6ft 8s 8s 7 9 mph 1013.2mb 65f 62f
1:50pm 5.5ft 8s 8s 7 9 mph 1013.7mb 65f 64f
12:50pm 5ft 9s 8s 7 9 mph 1013.5mb 65f 63f
11:50am 5ft 9s 8s 4
mph
1013.7mb 65f 63f
10:50am 5ft 9s 8s 4 7 mph 1013.6mb 64f 63f
9:50am 5ft 9s 8s 4
mph
1013.4mb 65f 63f
8:50am 5ft 8s 8s 7 9 mph 1013mb 65f 62f
7:50am 6ft 9s 8s 7 11 mph 1012.9mb 65f 62f
6:50am 5.5ft 9s 8s 7 11 mph 1012.4mb 65f 62f